aviador You're here:

ZYTX Decoded Metar

SHENYANG/TAOKIAN in CHINA
Report Time2017-05-28 23:30:00
UTC Time2017-05-29 00:02:44
Flight Rules vfr VFR
Wind200° at 4 kt
W.Decomp.*RWY 24: 3.4 kt HW 2.1 kt LCW
W.Rank200° ranks 4
Current wind is below 200° avg. (6.9)
Visibility8000 m
Phenomena:Light Shower Rain
Clouds:Few TCU 033 Hf
Broken 040 Hf
Expected CloudBase > 4,400 ft AGL from Temp-Dew spread
Ceiling4,000 ft
Temp17°C (ISA +2)
Dew Point06°C (49% RH)
AAT14.7°C
QNH1015 hPa
Density Alt440 ft
Elevation115 ft
Report Wrong Elevation
Raw Report
ZYTX 282330Z 20002MPS 8000 -SHRA FEW033TCU BKN040 17/06 Q1015
NOSIG=

Extra information for ZYTX:More info

Metar Taf Metar & Taf Last 4 Metars F.Rules Stats Wind Profile Meteogram Temp Stats Airport Information Weather charts Add Link Nearby VenuesMetar ALERT Operation Metar Decoded Social comments